Time;durP1;ratioP1;P1;durP2;ratioP2;P2;SDS_P1;SDS_P2;PMS_P1;PMS_P2;Temp;Humidity;BMP_temperature;BMP_pressure;BME280_temperature;BME280_humidity;BME280_pressure;Samples;Min_cycle;Max_cycle;Signal;HPM_P1;HPM_P2
2024/03/12 00:00:15;;;;;;;;;;;6.00;99.90;;;4.94;100.00;97398.56;4938339;28;1209;-70
2024/03/12 00:02:45;;;;;;;;;;;6.00;99.90;;;4.99;100.00;97404.44;4947201;28;1255;-70
2024/03/12 00:05:18;;;;;;;;;;;6.00;99.90;;;4.96;100.00;97405.34;4938377;28;1441;-70
2024/03/12 00:07:49;;;;;;;;;;;6.00;99.90;;;4.98;100.00;97415.63;4940733;28;1914;-70
2024/03/12 00:10:19;;;;;;;;;;;6.00;99.90;;;5.09;100.00;97412.81;4941225;28;1320;-69
2024/03/12 00:12:51;;;;;;;;;;;6.00;99.90;;;5.20;100.00;97415.94;4939505;28;1140;-70
2024/03/12 00:15:22;;;;;;;;;;;6.10;99.90;;;5.40;100.00;97428.34;4939534;28;1164;-68
2024/03/12 00:17:51;;;;;;;;;;;6.10;99.90;;;5.34;100.00;97429.34;4935893;28;997;-70
2024/03/12 00:20:18;;;;;;;;;;;6.10;99.90;;;5.32;100.00;97431.13;4939780;28;1276;-70
2024/03/12 00:22:49;;;;;;;;;;;6.20;99.90;;;5.40;100.00;97439.47;4982254;28;1204;-70
2024/03/12 00:25:20;;;;;;;;;;;6.20;99.90;;;5.45;100.00;97437.66;4943931;28;1239;-70
2024/03/12 00:27:48;;;;;;;;;;;6.30;99.90;;;5.42;100.00;97442.88;4955300;28;1993;-69
2024/03/12 00:30:18;;;;;;;;;;;6.30;99.90;;;5.49;100.00;97443.56;4946658;28;1513;-68
2024/03/12 00:32:47;;;;;;;;;;;6.30;99.90;;;5.52;100.00;97448.66;4945607;28;1395;-70
2024/03/12 00:35:14;;;;;;;;;;;6.40;99.90;;;5.58;100.00;97453.63;4958082;28;1238;-70
2024/03/12 00:37:41;;;;;;;;;;;6.40;99.90;;;5.57;100.00;97449.38;4942749;28;1695;-68
2024/03/12 00:40:12;;;;;;;;;;;6.50;99.90;;;5.45;100.00;97444.50;4947677;28;1323;-70
2024/03/12 00:42:41;;;;;;;;;;;6.50;99.90;;;5.39;100.00;97447.25;4942151;28;1391;-70
2024/03/12 00:45:11;;;;;;;;;;;6.50;99.90;;;5.34;100.00;97457.66;4949044;28;1197;-70
2024/03/12 00:47:42;;;;;;;;;;;6.40;99.90;;;5.32;100.00;97456.84;4945212;28;1978;-70
2024/03/12 00:50:11;;;;;;;;;;;6.40;99.90;;;5.37;100.00;97456.75;4941222;28;1194;-70
2024/03/12 00:52:38;;;;;;;;;;;6.30;99.90;;;5.34;100.00;97469.69;4945788;28;1544;-70
2024/03/12 00:55:09;;;;;;;;;;;6.30;99.90;;;5.40;100.00;97456.66;4948863;28;1247;-70
2024/03/12 00:57:38;;;;;;;;;;;6.30;99.90;;;5.40;100.00;97461.81;4951163;28;1256;-70
2024/03/12 01:00:16;;;;;;;;;;;6.30;99.90;;;5.42;100.00;97454.91;4943312;28;1256;-69
2024/03/12 01:02:48;;;;;;;;;;;6.30;99.90;;;5.41;100.00;97460.94;4942629;28;1196;-70
2024/03/12 01:05:21;;;;;;;;;;;6.30;99.90;;;5.48;100.00;97456.50;4974581;28;1070;-69
2024/03/12 01:07:48;;;;;;;;;;;6.30;99.90;;;5.44;100.00;97460.84;4945503;28;1997;-69
2024/03/12 01:10:20;;;;;;;;;;;6.30;99.90;;;5.38;100.00;97461.88;4943995;28;1222;-69
2024/03/12 01:12:49;;;;;;;;;;;6.40;99.90;;;5.36;100.00;97458.47;4946438;28;1228;-69
2024/03/12 01:15:18;;;;;;;;;;;6.30;99.90;;;5.34;100.00;97449.09;4947952;28;1237;-69
2024/03/12 01:17:46;;;;;;;;;;;6.20;99.90;;;5.32;100.00;97453.44;4939971;28;1371;-69
2024/03/12 01:20:16;;;;;;;;;;;6.20;99.90;;;5.27;100.00;97448.41;4939038;28;1282;-69
2024/03/12 01:22:43;;;;;;;;;;;6.20;99.90;;;5.30;100.00;97452.63;4957750;28;1463;-69
2024/03/12 01:25:10;;;;;;;;;;;6.20;99.90;;;5.26;100.00;97459.56;4955486;28;1423;-69
2024/03/12 01:27:38;;;;;;;;;;;6.20;99.90;;;5.17;100.00;97455.47;4951156;28;2001;-69
2024/03/12 01:30:16;;;;;;;;;;;6.20;99.90;;;5.20;100.00;97454.53;4960503;28;1423;-69
2024/03/12 01:32:47;;;;;;;;;;;6.20;99.90;;;5.25;100.00;97463.03;4939614;28;1238;-70
2024/03/12 01:35:14;;;;;;;;;;;6.10;99.90;;;5.35;100.00;97471.38;4946536;28;1202;-70
2024/03/12 01:37:43;;;;;;;;;;;6.10;99.90;;;5.31;100.00;97459.44;4941668;28;1371;-69
2024/03/12 01:40:21;;;;;;;;;;;6.10;99.90;;;5.27;100.00;97463.84;4957348;28;1357;-69
2024/03/12 01:42:53;;;;;;;;;;;6.10;99.90;;;5.28;100.00;97462.94;4940976;28;1994;-69
2024/03/12 01:45:22;;;;;;;;;;;6.20;99.90;;;5.20;100.00;97465.72;4949139;28;1271;-70
2024/03/12 01:47:50;;;;;;;;;;;6.10;99.90;;;5.30;100.00;97474.06;4942355;28;1903;-69
2024/03/12 01:50:21;;;;;;;;;;;6.10;99.90;;;5.36;100.00;97471.34;4946279;28;1352;-69
2024/03/12 01:52:50;;;;;;;;;;;6.10;99.90;;;5.24;100.00;97463.91;4944502;28;1509;-69
2024/03/12 01:55:18;;;;;;;;;;;6.10;99.90;;;5.20;100.00;97462.25;4947782;28;1348;-69
2024/03/12 01:57:46;;;;;;;;;;;6.10;99.90;;;5.19;100.00;97458.00;4951275;28;1226;-69
2024/03/12 02:00:14;;;;;;;;;;;6.10;99.90;;;5.16;100.00;97464.06;4947717;28;1328;-69
2024/03/12 02:02:45;;;;;;;;;;;6.10;99.90;;;5.32;100.00;97471.47;4947622;28;1410;-70
2024/03/12 02:05:12;;;;;;;;;;;6.10;99.90;;;5.32;100.00;97474.88;4974285;28;1242;-69
2024/03/12 02:07:45;;;;;;;;;;;6.10;99.90;;;5.28;100.00;97473.25;4941314;28;1902;-69
2024/03/12 02:10:13;;;;;;;;;;;6.10;99.90;;;5.29;100.00;97499.81;4954298;28;1225;-69
2024/03/12 02:12:41;;;;;;;;;;;6.10;99.90;;;5.30;100.00;97491.22;4945457;28;1340;-69
2024/03/12 02:15:08;;;;;;;;;;;6.20;99.90;;;5.42;100.00;97496.09;4947196;28;1660;-70
2024/03/12 02:17:35;;;;;;;;;;;6.10;99.90;;;5.36;100.00;97488.50;4936819;28;1375;-70
2024/03/12 02:20:08;;;;;;;;;;;6.20;99.90;;;5.39;100.00;97503.88;4953658;28;1438;-70
2024/03/12 02:22:36;;;;;;;;;;;6.20;99.90;;;5.38;100.00;97497.03;4958140;28;1414;-69
2024/03/12 02:25:06;;;;;;;;;;;6.20;99.90;;;5.39;100.00;97498.75;4954041;28;1330;-70
2024/03/12 02:27:33;;;;;;;;;;;6.20;99.90;;;5.41;100.00;97497.81;4950842;28;1978;-70
2024/03/12 02:30:00;;;;;;;;;;;6.20;99.90;;;5.38;100.00;97531.38;4940433;28;1164;-70
2024/03/12 02:32:27;;;;;;;;;;;6.20;99.90;;;5.51;100.00;97507.91;4940542;28;1328;-69
2024/03/12 02:34:54;;;;;;;;;;;6.30;99.90;;;5.53;100.00;97508.72;4941852;28;1217;-70
2024/03/12 02:37:21;;;;;;;;;;;6.30;99.90;;;5.57;100.00;97512.91;4943605;28;1173;-69
2024/03/12 02:39:48;;;;;;;;;;;6.30;99.90;;;5.55;100.00;97530.97;4942788;28;1137;-69
2024/03/12 02:42:15;;;;;;;;;;;6.30;99.90;;;5.66;100.00;97531.56;4936990;28;1439;-70
2024/03/12 02:44:42;;;;;;;;;;;6.30;99.90;;;5.68;100.00;97528.97;4945413;28;1137;-69
2024/03/12 02:47:09;;;;;;;;;;;6.30;99.90;;;5.62;100.00;97529.94;4944711;28;1926;-69
2024/03/12 02:49:36;;;;;;;;;;;6.30;99.90;;;5.61;100.00;97524.81;4939467;28;1089;-70
2024/03/12 02:52:03;;;;;;;;;;;6.40;99.90;;;5.66;100.00;97530.72;4940337;28;1249;-69
2024/03/12 02:54:30;;;;;;;;;;;6.40;99.90;;;5.64;100.00;97535.91;4941544;28;1103;-69
2024/03/12 02:56:58;;;;;;;;;;;6.40;99.90;;;5.58;100.00;97535.19;4946762;28;1042;-69
2024/03/12 02:59:27;;;;;;;;;;;6.40;99.90;;;5.68;100.00;97535.81;4947922;28;1165;-69
2024/03/12 03:01:57;;;;;;;;;;;6.40;99.90;;;5.63;100.00;97533.34;4942071;28;1415;-70
2024/03/12 03:04:24;;;;;;;;;;;6.50;99.90;;;5.63;100.00;97529.06;4941197;28;1026;-69
2024/03/12 03:06:52;;;;;;;;;;;6.40;99.90;;;5.60;100.00;97530.84;4939132;28;1903;-70
2024/03/12 03:09:20;;;;;;;;;;;6.50;99.90;;;5.63;100.00;97535.91;4942307;28;1066;-70
2024/03/12 03:11:47;;;;;;;;;;;6.50;99.90;;;5.63;100.00;97526.50;4944782;28;1439;-69
2024/03/12 03:14:14;;;;;;;;;;;6.50;99.90;;;5.71;100.00;97544.31;4939275;28;1192;-69
2024/03/12 03:16:41;;;;;;;;;;;6.50;99.90;;;5.69;100.00;97538.38;4945347;28;1082;-70
2024/03/12 03:19:25;;;;;;;;;;;6.40;99.90;;;5.69;100.00;97542.66;4942466;28;1450;-68
2024/03/12 03:21:52;;;;;;;;;;;6.50;99.90;;;5.73;100.00;97536.56;4944485;28;1699;-69
2024/03/12 03:24:18;;;;;;;;;;;6.50;99.90;;;5.66;100.00;97535.88;4942505;28;1152;-70
2024/03/12 03:26:45;;;;;;;;;;;6.50;99.90;;;5.67;100.00;97537.53;4939004;28;1911;-68
2024/03/12 03:29:12;;;;;;;;;;;6.40;99.90;;;5.76;100.00;97546.78;4948280;28;1102;-69
2024/03/12 03:31:41;;;;;;;;;;;6.40;99.90;;;5.71;100.00;97552.06;4940203;28;1256;-69
2024/03/12 03:34:10;;;;;;;;;;;6.40;99.90;;;5.66;100.00;97556.47;4941243;28;1069;-69
2024/03/12 03:36:39;;;;;;;;;;;6.50;99.90;;;5.68;100.00;97549.56;4944727;28;1056;-69
2024/03/12 03:39:08;;;;;;;;;;;6.50;99.90;;;5.69;100.00;97545.25;4940089;28;1122;-69
2024/03/12 03:41:35;;;;;;;;;;;6.50;99.90;;;5.78;100.00;97553.59;4945619;28;1355;-70
2024/03/12 03:44:02;;;;;;;;;;;6.50;99.90;;;5.85;100.00;97551.72;4940139;28;1075;-69
2024/03/12 03:46:29;;;;;;;;;;;6.50;99.90;;;5.74;100.00;97544.25;4950663;28;1903;-69
2024/03/12 03:48:57;;;;;;;;;;;6.60;99.90;;;5.76;100.00;97546.78;4962462;28;1150;-69
2024/03/12 03:51:25;;;;;;;;;;;6.60;99.90;;;5.91;100.00;97548.13;4946789;28;1304;-70
2024/03/12 03:53:52;;;;;;;;;;;6.60;99.90;;;5.93;100.00;97559.25;4940249;28;1068;-69
2024/03/12 03:56:21;;;;;;;;;;;6.60;99.90;;;5.90;100.00;97549.88;4940078;28;1038;-69
2024/03/12 03:58:49;;;;;;;;;;;6.60;99.90;;;5.92;100.00;97555.00;4938044;28;1079;-69
2024/03/12 04:01:15;;;;;;;;;;;6.70;99.90;;;5.89;100.00;97561.06;4943616;28;1292;-69
2024/03/12 04:03:43;;;;;;;;;;;6.70;99.90;;;5.92;100.00;97567.88;4941827;28;1086;-70
2024/03/12 04:06:10;;;;;;;;;;;6.70;99.90;;;5.89;100.00;97566.22;4943399;28;1035;-69
2024/03/12 04:08:38;;;;;;;;;;;6.70;99.90;;;5.93;100.00;97583.31;4942614;28;2032;-70
2024/03/12 04:11:05;;;;;;;;;;;6.60;99.90;;;5.95;100.00;97580.72;4937226;28;1399;-69
2024/03/12 04:13:35;;;;;;;;;;;6.70;99.90;;;5.95;100.00;97578.13;4953503;28;1061;-69
2024/03/12 04:16:01;;;;;;;;;;;6.70;99.90;;;6.01;100.00;97589.13;4944960;28;1225;-69
2024/03/12 04:18:28;;;;;;;;;;;6.70;99.90;;;5.93;100.00;97585.88;4945770;28;1108;-69
2024/03/12 04:20:56;;;;;;;;;;;6.70;99.90;;;5.99;100.00;97593.47;4950981;28;1308;-69
2024/03/12 04:23:23;;;;;;;;;;;6.70;99.90;;;6.02;100.00;97602.84;4937311;28;1027;-69
2024/03/12 04:25:50;;;;;;;;;;;6.70;99.90;;;5.96;100.00;97598.72;4939729;28;1356;-69
2024/03/12 04:28:19;;;;;;;;;;;6.80;99.90;;;6.05;100.00;97608.78;4943750;28;1988;-69
2024/03/12 04:30:48;;;;;;;;;;;6.70;99.90;;;6.08;100.00;97618.19;4937890;28;1374;-69
2024/03/12 04:33:17;;;;;;;;;;;6.70;99.90;;;6.01;100.00;97614.06;4940605;28;1066;-70
2024/03/12 04:35:45;;;;;;;;;;;6.70;99.90;;;5.91;100.00;97616.00;4937461;28;1252;-70
2024/03/12 04:38:14;;;;;;;;;;;6.70;99.90;;;5.99;100.00;97620.97;4942592;28;1037;-70
2024/03/12 04:40:43;;;;;;;;;;;6.70;99.90;;;5.98;100.00;97625.28;4927801;28;1360;-70
2024/03/12 04:43:12;;;;;;;;;;;6.70;99.90;;;5.96;100.00;97626.22;4941742;28;1011;-70
2024/03/12 04:45:41;;;;;;;;;;;6.70;99.90;;;5.82;100.00;97624.75;4945896;28;1212;-70
2024/03/12 04:48:08;;;;;;;;;;;6.70;99.90;;;5.85;100.00;97619.53;4944287;28;1915;-69
2024/03/12 04:50:35;;;;;;;;;;;6.70;99.90;;;5.95;100.00;97635.66;4942230;28;1363;-70
2024/03/12 04:53:02;;;;;;;;;;;6.70;99.90;;;5.97;100.00;97636.47;4949464;28;1118;-69
2024/03/12 04:55:29;;;;;;;;;;;6.70;99.90;;;6.10;100.00;97638.78;4956664;28;1078;-70
2024/03/12 04:57:56;;;;;;;;;;;6.70;99.90;;;5.93;100.00;97647.72;4940827;28;1292;-69
2024/03/12 05:00:23;;;;;;;;;;;6.70;99.90;;;6.01;100.00;97650.97;4949155;28;1375;-69
2024/03/12 05:02:50;;;;;;;;;;;6.70;99.90;;;6.05;100.00;97646.59;4946534;28;1131;-69
2024/03/12 05:05:18;;;;;;;;;;;6.70;99.90;;;6.00;100.00;97644.16;4942712;28;1184;-69
2024/03/12 05:07:45;;;;;;;;;;;6.80;99.90;;;6.05;100.00;97644.03;4943665;28;1911;-69
2024/03/12 05:10:12;;;;;;;;;;;6.80;99.90;;;6.01;100.00;97650.97;4942978;28;1211;-69
2024/03/12 05:12:40;;;;;;;;;;;6.80;99.90;;;6.02;100.00;97656.97;4945683;28;2030;-69
2024/03/12 05:15:09;;;;;;;;;;;6.80;99.90;;;6.11;100.00;97672.22;4941672;28;1995;-69
2024/03/12 05:17:37;;;;;;;;;;;6.70;99.90;;;6.08;100.00;97670.56;4946896;28;1121;-70
2024/03/12 05:20:18;;;;;;;;;;;6.70;99.90;;;6.05;100.00;97675.78;4951828;28;1168;-69
2024/03/12 05:22:45;;;;;;;;;;;6.70;99.90;;;6.07;100.00;97674.03;4938064;28;1224;-69
2024/03/12 05:25:38;;;;;;;;;;;6.80;99.90;;;6.02;100.00;97678.44;4940153;28;1090;-69
2024/03/12 05:28:08;;;;;;;;;;;6.80;99.90;;;5.92;100.00;97687.22;4944067;28;1903;-69
2024/03/12 05:30:36;;;;;;;;;;;6.80;99.90;;;5.93;100.00;97691.50;4942966;28;1329;-69
2024/03/12 05:33:07;;;;;;;;;;;6.80;99.90;;;6.00;100.00;97694.84;4939646;28;1155;-70
2024/03/12 05:35:34;;;;;;;;;;;6.80;99.90;;;5.94;100.00;97702.66;4928990;28;1221;-69
2024/03/12 05:38:10;;;;;;;;;;;6.80;99.90;;;6.03;100.00;97705.06;4949452;28;1222;-69
2024/03/12 05:40:57;;;;;;;;;;;6.80;99.90;;;5.99;100.00;97712.00;4944043;28;1300;-70
2024/03/12 05:48:54;;;;;;;;;;;6.80;99.90;;;6.01;100.00;97722.28;4944465;28;1911;-69
2024/03/12 05:51:21;;;;;;;;;;;6.70;99.90;;;6.01;100.00;97738.59;4944198;28;1268;-70
2024/03/12 05:53:48;;;;;;;;;;;6.70;99.90;;;6.03;100.00;97739.41;4945568;28;1081;-70
2024/03/12 05:56:16;;;;;;;;;;;6.70;99.90;;;6.08;100.00;97737.56;4942145;28;1105;-69
2024/03/12 05:58:45;;;;;;;;;;;6.70;99.90;;;6.02;100.00;97744.56;4946122;28;1102;-69
2024/03/12 06:01:12;;;;;;;;;;;6.80;99.90;;;6.06;100.00;97751.38;4952145;28;1320;-69
2024/03/12 06:03:40;;;;;;;;;;;6.90;99.90;;;6.05;100.00;97752.25;4939107;28;1187;-69
2024/03/12 06:06:07;;;;;;;;;;;6.90;99.90;;;6.01;100.00;97750.63;4945295;28;1188;-69
2024/03/12 06:08:35;;;;;;;;;;;6.90;99.90;;;6.03;100.00;97756.59;4940167;28;2020;-70
2024/03/12 06:11:02;;;;;;;;;;;6.90;99.90;;;6.06;100.00;97752.22;4943363;28;1422;-69
2024/03/12 06:13:30;;;;;;;;;;;7.00;99.90;;;6.08;100.00;97760.75;4953984;28;1085;-69
2024/03/12 06:15:57;;;;;;;;;;;6.90;99.90;;;6.08;100.00;97758.19;4948602;28;1284;-69
2024/03/12 06:18:25;;;;;;;;;;;6.90;99.90;;;6.09;100.00;97761.63;4959213;28;1070;-70
2024/03/12 06:20:52;;;;;;;;;;;6.90;99.90;;;6.11;100.00;97767.56;4940947;28;1371;-69
2024/03/12 06:23:21;;;;;;;;;;;6.90;99.90;;;6.25;100.00;97769.88;4941118;28;1280;-70
2024/03/12 06:25:48;;;;;;;;;;;6.90;99.90;;;6.07;100.00;97774.53;4949674;28;1156;-70
2024/03/12 06:28:16;;;;;;;;;;;6.90;99.90;;;6.14;100.00;97771.84;4936436;28;1934;-69
2024/03/12 06:30:43;;;;;;;;;;;7.00;99.90;;;6.21;100.00;97765.66;4940035;28;1339;-70
2024/03/12 06:33:11;;;;;;;;;;;7.10;99.90;;;6.14;100.00;97775.25;4937052;28;1091;-69
2024/03/12 06:35:40;;;;;;;;;;;7.00;99.90;;;6.20;100.00;97779.41;4944328;28;1947;-69
2024/03/12 06:38:07;;;;;;;;;;;7.00;99.90;;;6.23;100.00;97771.63;4941977;28;1312;-69
2024/03/12 06:40:34;;;;;;;;;;;7.10;99.90;;;6.28;100.00;97772.38;4941480;28;1451;-69
2024/03/12 06:43:01;;;;;;;;;;;7.00;99.90;;;6.20;100.00;97777.72;4941037;28;1017;-70
2024/03/12 06:45:28;;;;;;;;;;;7.00;99.90;;;6.21;100.00;97776.81;4945069;28;1054;-70
2024/03/12 06:48:00;;;;;;;;;;;7.00;99.90;;;6.14;100.00;97777.84;4951874;28;1906;-69
2024/03/12 06:50:27;;;;;;;;;;;7.00;99.90;;;6.25;100.00;97783.59;4943682;28;1268;-69
2024/03/12 06:52:55;;;;;;;;;;;7.00;99.90;;;6.33;100.00;97791.16;4939382;28;1197;-69
2024/03/12 06:55:26;;;;;;;;;;;7.00;99.90;;;6.33;100.00;97791.16;4940275;28;1114;-70
2024/03/12 06:57:59;;;;;;;;;;;7.00;99.90;;;6.38;100.00;97797.06;4943573;28;1118;-70
2024/03/12 07:00:36;;;;;;;;;;;7.00;99.90;;;6.27;100.00;97792.16;4941047;28;1364;-70
2024/03/12 07:03:04;;;;;;;;;;;7.00;99.90;;;6.36;100.00;97798.81;4941224;28;1098;-69
2024/03/12 07:05:36;;;;;;;;;;;7.10;99.90;;;6.42;100.00;97801.25;4941596;28;1380;-70
2024/03/12 07:08:07;;;;;;;;;;;7.10;99.90;;;6.38;100.00;97793.63;4949412;28;1911;-69
2024/03/12 07:10:36;;;;;;;;;;;7.10;99.90;;;6.34;100.00;97797.16;4966979;28;1367;-70
2024/03/12 07:13:07;;;;;;;;;;;7.00;99.90;;;6.32;100.00;97804.06;4949240;28;1124;-70
2024/03/12 07:15:36;;;;;;;;;;;7.10;99.90;;;6.30;100.00;97801.53;4946119;28;1090;-70
2024/03/12 07:18:03;;;;;;;;;;;7.00;99.90;;;6.38;100.00;97814.25;4940558;28;1089;-70
2024/03/12 07:20:31;;;;;;;;;;;7.00;99.90;;;6.32;100.00;97804.94;4946195;28;1364;-69
2024/03/12 07:22:58;;;;;;;;;;;7.00;99.90;;;6.33;100.00;97808.34;4938406;28;1293;-70
2024/03/12 07:25:26;;;;;;;;;;;7.10;99.90;;;6.44;100.00;97812.41;4941158;28;1308;-69
2024/03/12 07:27:53;;;;;;;;;;;7.10;99.90;;;6.49;100.00;97817.44;4943439;28;1903;-69
2024/03/12 07:30:24;;;;;;;;;;;7.00;99.90;;;6.49;100.00;97817.44;4960933;28;1391;-69
2024/03/12 07:32:52;;;;;;;;;;;7.10;99.90;;;6.32;100.00;97815.25;4943006;28;1405;-70
2024/03/12 07:35:19;;;;;;;;;;;7.10;99.90;;;6.32;100.00;97824.69;4940055;28;1305;-71
2024/03/12 07:37:46;;;;;;;;;;;7.10;99.90;;;6.49;100.00;97820.03;4941634;28;1463;-70
2024/03/12 07:40:15;;;;;;;;;;;7.20;99.90;;;6.43;100.00;97826.19;4921046;28;1143;-69
2024/03/12 07:42:43;;;;;;;;;;;7.20;99.90;;;6.46;100.00;97833.00;4942807;28;1189;-69
2024/03/12 07:45:12;;;;;;;;;;;7.20;99.90;;;6.64;100.00;97834.31;4941630;28;1332;-70
2024/03/12 07:47:40;;;;;;;;;;;7.20;99.90;;;6.50;100.00;97829.47;4938418;28;1938;-70
2024/03/12 07:50:08;;;;;;;;;;;7.10;99.90;;;6.57;100.00;97836.19;4930147;28;1092;-70
2024/03/12 07:52:35;;;;;;;;;;;7.20;99.90;;;6.66;100.00;97835.97;4938384;28;1397;-69
2024/03/12 07:55:03;;;;;;;;;;;7.20;99.90;;;6.62;100.00;97839.50;4945122;28;1245;-69
2024/03/12 07:57:35;;;;;;;;;;;7.20;99.90;;;6.66;100.00;97838.56;4944008;28;1067;-69
2024/03/12 08:00:05;;;;;;;;;;;7.20;99.90;;;6.81;100.00;97839.09;4943202;28;1057;-70
2024/03/12 08:02:32;;;;;;;;;;;7.20;99.90;;;6.81;100.00;97833.91;4947728;28;1225;-70
2024/03/12 08:04:59;;;;;;;;;;;7.20;99.90;;;6.89;100.00;97839.75;4932842;28;1227;-69
2024/03/12 08:07:25;;;;;;;;;;;7.30;99.90;;;6.83;100.00;97835.56;4950458;28;1174;-69
2024/03/12 08:09:52;;;;;;;;;;;7.30;99.90;;;6.56;100.00;97831.91;4943763;28;1927;-70
2024/03/12 08:12:19;;;;;;;;;;;7.30;99.90;;;6.72;100.00;97834.13;4939476;28;1438;-69
2024/03/12 08:14:46;;;;;;;;;;;7.20;99.90;;;6.77;100.00;97837.44;4945001;28;1303;-69
2024/03/12 08:17:13;;;;;;;;;;;7.30;99.90;;;6.62;100.00;97836.94;4952873;28;1138;-70
2024/03/12 08:19:42;;;;;;;;;;;7.30;99.90;;;6.72;100.00;97828.97;4945785;28;1144;-69
2024/03/12 08:22:09;;;;;;;;;;;7.40;99.90;;;6.88;100.00;97827.72;4942258;28;1253;-69
2024/03/12 08:24:39;;;;;;;;;;;7.40;99.90;;;6.98;100.00;97821.47;4928111;28;1125;-69
2024/03/12 08:27:06;;;;;;;;;;;7.30;99.90;;;7.03;100.00;97819.63;4943455;28;1046;-69
2024/03/12 08:29:34;;;;;;;;;;;7.40;99.90;;;7.08;100.00;97820.34;4946377;28;1902;-69
2024/03/12 08:32:00;;;;;;;;;;;7.50;99.90;;;7.01;100.00;97823.97;4940015;28;1328;-69
2024/03/12 08:34:28;;;;;;;;;;;7.60;99.90;;;7.26;100.00;97828.53;4945136;28;1154;-69
2024/03/12 08:36:55;;;;;;;;;;;7.60;99.90;;;7.07;100.00;97826.41;4943075;28;1232;-70
2024/03/12 08:39:22;;;;;;;;;;;7.50;99.90;;;6.96;100.00;97825.81;4941174;28;1077;-69
2024/03/12 08:41:49;;;;;;;;;;;7.60;99.90;;;7.12;100.00;97824.56;4946026;28;1410;-70
2024/03/12 08:44:16;;;;;;;;;;;7.60;99.90;;;7.10;100.00;97825.47;4942092;28;1090;-69
2024/03/12 08:46:43;;;;;;;;;;;7.70;99.90;;;7.24;100.00;97825.97;4945114;28;1421;-69
2024/03/12 08:49:13;;;;;;;;;;;7.70;99.90;;;7.07;100.00;97826.41;4972568;28;1987;-69
2024/03/12 08:51:40;;;;;;;;;;;7.70;99.90;;;7.18;100.00;97820.13;4945231;28;1240;-69
2024/03/12 08:54:08;;;;;;;;;;;7.70;99.90;;;7.35;100.00;97827.47;4938214;28;1086;-70
2024/03/12 08:56:36;;;;;;;;;;;7.60;99.90;;;7.28;100.00;97825.03;4979119;28;1074;-69
2024/03/12 08:59:05;;;;;;;;;;;7.60;99.90;;;7.13;100.00;97815.06;4942262;28;914;-69
2024/03/12 09:01:32;;;;;;;;;;;7.60;99.90;;;6.99;100.00;97818.00;4943356;28;1395;-70
2024/03/12 09:04:00;;;;;;;;;;;7.60;99.90;;;7.25;100.00;97826.81;4948330;28;1117;-69
2024/03/12 09:06:27;;;;;;;;;;;7.60;99.90;;;7.29;100.00;97821.53;4944758;28;1165;-70
2024/03/12 09:08:55;;;;;;;;;;;7.60;99.90;;;7.24;100.00;97819.97;4979512;28;2013;-70
2024/03/12 09:11:22;;;;;;;;;;;7.60;99.90;;;7.17;100.00;97826.19;4941873;28;1378;-69
2024/03/12 09:13:50;;;;;;;;;;;7.60;99.90;;;7.06;100.00;97824.69;4941621;28;1009;-69
2024/03/12 09:16:16;;;;;;;;;;;7.70;99.90;;;7.18;100.00;97833.03;4945995;28;1292;-69
2024/03/12 09:18:43;;;;;;;;;;;7.70;99.90;;;6.92;100.00;97837.09;4939670;28;1112;-69
2024/03/12 09:21:15;;;;;;;;;;;7.70;99.90;;;6.93;100.00;97833.63;4929671;28;1450;-69
2024/03/12 09:23:44;;;;;;;;;;;7.70;99.90;;;6.81;100.00;97849.41;4944394;28;1136;-69
2024/03/12 09:26:27;;;;;;;;;;;7.60;99.90;;;6.85;100.00;97856.19;4950316;28;1205;-69
2024/03/12 09:28:55;;;;;;;;;;;7.50;99.90;;;6.86;100.00;97863.03;4939185;28;1919;-69
2024/03/12 09:31:22;;;;;;;;;;;7.50;99.90;;;6.74;100.00;97863.31;4933063;28;1427;-69
2024/03/12 09:33:51;;;;;;;;;;;7.50;99.90;;;6.80;100.00;97863.19;4943817;28;1186;-69
2024/03/12 09:36:20;;;;;;;;;;;7.60;99.90;;;7.06;100.00;97863.41;4949965;28;1138;-69
2024/03/12 09:38:51;;;;;;;;;;;7.60;99.90;;;6.91;100.00;97868.94;4940732;28;1254;-70
2024/03/12 09:41:23;;;;;;;;;;;7.50;99.90;;;6.84;100.00;97869.97;4941840;28;1408;-69
2024/03/12 09:43:52;;;;;;;;;;;7.40;99.90;;;6.67;100.00;97870.34;4974113;28;1363;-70
2024/03/12 09:46:20;;;;;;;;;;;7.30;99.90;;;6.69;100.00;97884.91;4940172;28;1040;-70
2024/03/12 09:48:49;;;;;;;;;;;7.30;99.90;;;6.53;100.00;97887.88;4944017;28;1899;-69
2024/03/12 09:51:16;;;;;;;;;;;7.30;99.90;;;6.52;100.00;97899.88;4940342;28;1324;-70
2024/03/12 09:53:42;;;;;;;;;;;7.20;99.90;;;6.44;100.00;97897.50;4955189;28;1099;-69
2024/03/12 09:56:15;;;;;;;;;;;7.20;99.90;;;6.49;100.00;97911.13;4945690;28;1107;-69
2024/03/12 09:58:43;;;;;;;;;;;7.10;99.90;;;6.43;100.00;97908.69;4952135;28;1187;-69
2024/03/12 10:01:10;;;;;;;;;;;7.00;99.90;;;6.44;100.00;97907.81;4943116;28;1758;-69
2024/03/12 10:03:37;;;;;;;;;;;7.00;99.90;;;6.48;100.00;97911.19;4952595;28;1329;-69
2024/03/12 10:06:05;;;;;;;;;;;7.10;99.90;;;6.32;100.00;97905.47;4946325;28;1205;-69
2024/03/12 10:08:34;;;;;;;;;;;7.00;99.90;;;6.22;100.00;97909.09;4948440;28;1934;-69
2024/03/12 10:11:07;;;;;;;;;;;7.10;99.90;;;6.03;100.00;97909.47;4945366;28;1297;-69
2024/03/12 10:13:38;;;;;;;;;;;7.10;99.90;;;6.08;100.00;97910.22;4940972;28;1090;-69
2024/03/12 10:16:06;;;;;;;;;;;6.90;99.90;;;6.06;100.00;97918.88;4948596;28;1069;-69
2024/03/12 10:18:34;;;;;;;;;;;7.00;99.90;;;5.88;100.00;97922.59;4949211;28;1115;-69
2024/03/12 10:21:02;;;;;;;;;;;6.80;99.90;;;5.99;100.00;97918.13;4943452;28;1285;-70
2024/03/12 10:23:31;;;;;;;;;;;6.80;99.90;;;5.92;100.00;97931.13;4945262;28;1074;-69
2024/03/12 10:26:19;;;;;;;;;;;6.80;99.90;;;5.98;100.00;97931.06;4952401;28;1371;-69
2024/03/12 10:28:46;;;;;;;;;;;6.80;99.90;;;5.90;100.00;97930.31;4962342;28;1910;-69
2024/03/12 10:31:14;;;;;;;;;;;6.70;99.90;;;5.92;100.00;97916.53;4948005;28;1370;-69
2024/03/12 10:33:48;;;;;;;;;;;6.70;99.90;;;5.88;100.00;97914.88;4954401;28;1222;-69
2024/03/12 10:36:30;;;;;;;;;;;6.60;99.90;;;5.89;100.00;97932.03;4945891;28;1394;-69
2024/03/12 10:38:58;;;;;;;;;;;6.70;99.90;;;5.85;100.00;97920.94;4948642;28;1939;-70
2024/03/12 10:41:25;;;;;;;;;;;6.70;99.90;;;5.93;100.00;97925.97;4938186;28;1468;-69
2024/03/12 10:43:55;;;;;;;;;;;6.70;99.90;;;6.04;100.00;97913.75;4948603;28;1403;-69
2024/03/12 10:46:23;;;;;;;;;;;6.60;99.90;;;6.17;100.00;97916.94;4935000;28;1434;-69
2024/03/12 10:48:50;;;;;;;;;;;6.80;99.90;;;6.34;100.00;97911.47;4957496;28;1985;-70
2024/03/12 10:51:19;;;;;;;;;;;6.90;99.90;;;6.52;100.00;97906.78;4951772;28;1329;-69
2024/03/12 10:53:53;;;;;;;;;;;7.00;99.90;;;6.77;100.00;97909.69;4945524;28;1352;-69
2024/03/12 10:56:21;;;;;;;;;;;7.10;99.90;;;6.53;100.00;97908.50;4960105;28;1342;-70
2024/03/12 10:58:48;;;;;;;;;;;7.20;99.90;;;6.60;100.00;97913.47;4950780;28;1626;-70
2024/03/12 11:01:19;;;;;;;;;;;7.20;99.90;;;6.63;100.00;97913.41;4948999;28;1724;-70
2024/03/12 11:03:47;;;;;;;;;;;7.20;99.90;;;6.67;100.00;97899.56;4954878;28;1408;-70
2024/03/12 11:06:15;;;;;;;;;;;7.20;99.90;;;6.78;100.00;97906.25;4954560;28;1960;-69
2024/03/12 11:08:43;;;;;;;;;;;7.40;99.90;;;6.98;100.00;97893.75;4940674;28;1907;-70
2024/03/12 11:11:10;;;;;;;;;;;7.60;99.90;;;7.30;100.00;97900.72;4939614;28;1332;-70
2024/03/12 11:13:38;;;;;;;;;;;7.80;99.90;;;7.41;100.00;97894.41;4946294;28;1382;-70
2024/03/12 11:16:13;;;;;;;;;;;8.00;99.90;;;7.50;100.00;97894.19;4932259;28;1411;-70
2024/03/12 11:18:40;;;;;;;;;;;8.20;99.90;;;7.96;100.00;97888.69;4940488;28;1349;-70
2024/03/12 11:21:13;;;;;;;;;;;8.50;99.90;;;7.95;100.00;97892.16;4939381;28;1336;-70
2024/03/12 11:23:40;;;;;;;;;;;8.60;99.90;;;7.99;100.00;97885.16;4950940;28;1497;-70
2024/03/12 11:26:08;;;;;;;;;;;8.70;99.90;;;8.18;100.00;97877.75;4959467;28;1501;-70
2024/03/12 11:28:49;;;;;;;;;;;8.70;99.90;;;8.29;100.00;97877.44;4980179;28;1902;-70
2024/03/12 11:31:19;;;;;;;;;;;8.90;99.90;;;7.92;100.00;97868.97;4954815;28;1295;-70
2024/03/12 11:33:51;;;;;;;;;;;8.50;99.90;;;7.63;100.00;97856.84;4940593;28;1053;-70
2024/03/12 11:36:21;;;;;;;;;;;8.40;99.90;;;7.80;100.00;97863.28;4950114;28;1620;-70
2024/03/12 11:38:51;;;;;;;;;;;8.20;99.90;;;7.99;100.00;97851.56;4947366;28;1405;-70
2024/03/12 11:41:19;;;;;;;;;;;8.20;99.90;;;8.09;100.00;97846.97;4977321;28;1598;-70
2024/03/12 11:43:47;;;;;;;;;;;8.30;99.90;;;7.75;100.00;97846.19;4957335;28;1411;-70
2024/03/12 11:46:21;;;;;;;;;;;8.40;99.90;;;7.92;100.00;97852.63;4953531;28;1411;-69